sensor_id;sensor_type;location;lat;lon;timestamp;pressure;altitude;pressure_sealevel;temperature;humidity
25722;BME280;13578;53.450;15.496;2023-03-07T00:02:15;98200.78;;;-3.14;100.00
25722;BME280;13578;53.450;15.496;2023-03-07T00:05:16;98193.94;;;-3.04;100.00
25722;BME280;13578;53.450;15.496;2023-03-07T00:08:17;98183.16;;;-3.18;100.00
25722;BME280;13578;53.450;15.496;2023-03-07T00:11:18;98186.53;;;-3.14;100.00
25722;BME280;13578;53.450;15.496;2023-03-07T00:14:19;98182.28;;;-3.19;100.00
25722;BME280;13578;53.450;15.496;2023-03-07T00:17:19;98178.63;;;-3.17;100.00
25722;BME280;13578;53.450;15.496;2023-03-07T00:20:20;98190.66;;;-3.09;100.00
25722;BME280;13578;53.450;15.496;2023-03-07T00:23:20;98194.78;;;-3.03;100.00
25722;BME280;13578;53.450;15.496;2023-03-07T00:26:24;98182.25;;;-3.03;100.00
25722;BME280;13578;53.450;15.496;2023-03-07T00:29:24;98182.81;;;-2.97;100.00
25722;BME280;13578;53.450;15.496;2023-03-07T00:32:25;98178.59;;;-3.01;100.00
25722;BME280;13578;53.450;15.496;2023-03-07T00:35:26;98167.50;;;-2.95;100.00
25722;BME280;13578;53.450;15.496;2023-03-07T00:38:28;98162.78;;;-3.06;100.00
25722;BME280;13578;53.450;15.496;2023-03-07T00:41:29;98158.63;;;-3.12;100.00
25722;BME280;13578;53.450;15.496;2023-03-07T00:44:30;98163.31;;;-3.15;100.00
25722;BME280;13578;53.450;15.496;2023-03-07T00:47:32;98143.31;;;-3.10;100.00
25722;BME280;13578;53.450;15.496;2023-03-07T00:50:32;98139.28;;;-3.17;100.00
25722;BME280;13578;53.450;15.496;2023-03-07T00:53:34;98143.59;;;-3.14;100.00
25722;BME280;13578;53.450;15.496;2023-03-07T00:56:35;98142.53;;;-3.12;100.00
25722;BME280;13578;53.450;15.496;2023-03-07T00:59:36;98127.94;;;-3.22;100.00
25722;BME280;13578;53.450;15.496;2023-03-07T01:02:36;98121.81;;;-3.24;100.00
25722;BME280;13578;53.450;15.496;2023-03-07T01:05:38;98122.28;;;-3.17;100.00
25722;BME280;13578;53.450;15.496;2023-03-07T01:08:39;98130.25;;;-3.16;100.00
25722;BME280;13578;53.450;15.496;2023-03-07T01:11:40;98104.16;;;-3.28;100.00
25722;BME280;13578;53.450;15.496;2023-03-07T01:14:41;98100.53;;;-3.27;100.00
25722;BME280;13578;53.450;15.496;2023-03-07T01:17:41;98100.66;;;-3.14;100.00
25722;BME280;13578;53.450;15.496;2023-03-07T01:20:42;98097.66;;;-3.24;100.00
25722;BME280;13578;53.450;15.496;2023-03-07T01:23:43;98082.69;;;-3.28;100.00
25722;BME280;13578;53.450;15.496;2023-03-07T01:26:44;98080.88;;;-3.28;100.00
25722;BME280;13578;53.450;15.496;2023-03-07T01:29:44;98072.16;;;-3.31;100.00
25722;BME280;13578;53.450;15.496;2023-03-07T01:32:45;98061.22;;;-3.28;100.00
25722;BME280;13578;53.450;15.496;2023-03-07T01:35:47;98057.97;;;-3.33;100.00
25722;BME280;13578;53.450;15.496;2023-03-07T01:38:48;98053.44;;;-3.33;100.00
25722;BME280;13578;53.450;15.496;2023-03-07T01:41:49;98046.25;;;-3.47;100.00
25722;BME280;13578;53.450;15.496;2023-03-07T01:45:07;98044.72;;;-3.51;100.00
25722;BME280;13578;53.450;15.496;2023-03-07T01:48:27;98040.66;;;-3.58;100.00
25722;BME280;13578;53.450;15.496;2023-03-07T01:51:28;98029.78;;;-3.55;100.00
25722;BME280;13578;53.450;15.496;2023-03-07T01:54:30;98032.25;;;-3.52;100.00
25722;BME280;13578;53.450;15.496;2023-03-07T01:57:34;98023.94;;;-3.47;100.00
25722;BME280;13578;53.450;15.496;2023-03-07T02:00:36;98017.13;;;-3.53;100.00
25722;BME280;13578;53.450;15.496;2023-03-07T02:04:01;98011.84;;;-3.55;100.00
25722;BME280;13578;53.450;15.496;2023-03-07T02:07:03;98005.53;;;-3.54;100.00
25722;BME280;13578;53.450;15.496;2023-03-07T02:10:06;97990.78;;;-3.61;100.00
25722;BME280;13578;53.450;15.496;2023-03-07T02:13:07;97989.16;;;-3.49;100.00
25722;BME280;13578;53.450;15.496;2023-03-07T02:16:08;97993.84;;;-3.53;100.00
25722;BME280;13578;53.450;15.496;2023-03-07T02:19:43;97981.59;;;-3.57;100.00
25722;BME280;13578;53.450;15.496;2023-03-07T02:22:47;97977.88;;;-3.54;100.00
25722;BME280;13578;53.450;15.496;2023-03-07T02:25:55;97970.50;;;-3.51;100.00
25722;BME280;13578;53.450;15.496;2023-03-07T02:29:00;97965.81;;;-3.47;100.00
25722;BME280;13578;53.450;15.496;2023-03-07T02:32:02;97947.09;;;-3.48;100.00
25722;BME280;13578;53.450;15.496;2023-03-07T02:35:12;97956.41;;;-3.40;100.00
25722;BME280;13578;53.450;15.496;2023-03-07T02:38:13;97951.13;;;-3.41;100.00
25722;BME280;13578;53.450;15.496;2023-03-07T02:41:17;97947.09;;;-3.34;100.00
25722;BME280;13578;53.450;15.496;2023-03-07T02:44:20;97941.72;;;-3.34;100.00
25722;BME280;13578;53.450;15.496;2023-03-07T02:47:21;97932.72;;;-3.33;100.00
25722;BME280;13578;53.450;15.496;2023-03-07T02:50:21;97926.50;;;-3.33;100.00
25722;BME280;13578;53.450;15.496;2023-03-07T02:53:22;97921.81;;;-3.30;100.00
25722;BME280;13578;53.450;15.496;2023-03-07T02:56:23;97905.34;;;-3.38;100.00
25722;BME280;13578;53.450;15.496;2023-03-07T02:59:24;97902.00;;;-3.42;100.00
25722;BME280;13578;53.450;15.496;2023-03-07T03:02:25;97909.34;;;-3.31;100.00
25722;BME280;13578;53.450;15.496;2023-03-07T03:05:25;97902.56;;;-3.37;100.00
25722;BME280;13578;53.450;15.496;2023-03-07T03:08:26;97903.88;;;-3.29;100.00
25722;BME280;13578;53.450;15.496;2023-03-07T03:11:27;97875.06;;;-3.40;100.00
25722;BME280;13578;53.450;15.496;2023-03-07T03:14:27;97894.88;;;-3.28;100.00
25722;BME280;13578;53.450;15.496;2023-03-07T03:17:28;97875.06;;;-3.40;100.00
25722;BME280;13578;53.450;15.496;2023-03-07T03:20:29;97870.00;;;-3.45;100.00
25722;BME280;13578;53.450;15.496;2023-03-07T03:23:30;97869.50;;;-3.37;100.00
25722;BME280;13578;53.450;15.496;2023-03-07T03:26:30;97861.66;;;-3.40;100.00
25722;BME280;13578;53.450;15.496;2023-03-07T03:29:31;97861.56;;;-3.39;100.00
25722;BME280;13578;53.450;15.496;2023-03-07T03:32:32;97845.78;;;-3.43;100.00
25722;BME280;13578;53.450;15.496;2023-03-07T03:35:33;97844.41;;;-3.36;100.00
25722;BME280;13578;53.450;15.496;2023-03-07T03:38:34;97839.13;;;-3.23;100.00
25722;BME280;13578;53.450;15.496;2023-03-07T03:41:36;97824.69;;;-3.35;100.00
25722;BME280;13578;53.450;15.496;2023-03-07T03:44:37;97820.75;;;-3.44;100.00
25722;BME280;13578;53.450;15.496;2023-03-07T03:47:37;97811.66;;;-3.41;100.00
25722;BME280;13578;53.450;15.496;2023-03-07T03:50:38;97811.56;;;-3.40;100.00
25722;BME280;13578;53.450;15.496;2023-03-07T03:53:39;97792.56;;;-3.37;100.00
25722;BME280;13578;53.450;15.496;2023-03-07T03:56:39;97790.47;;;-3.31;100.00
25722;BME280;13578;53.450;15.496;2023-03-07T03:59:40;97785.84;;;-3.29;100.00
25722;BME280;13578;53.450;15.496;2023-03-07T04:02:41;97780.09;;;-3.23;100.00
25722;BME280;13578;53.450;15.496;2023-03-07T04:05:41;97765.31;;;-3.16;100.00
25722;BME280;13578;53.450;15.496;2023-03-07T04:08:42;97764.91;;;-3.10;100.00
25722;BME280;13578;53.450;15.496;2023-03-07T04:11:43;97767.16;;;-3.04;100.00
25722;BME280;13578;53.450;15.496;2023-03-07T04:14:44;97760.72;;;-3.01;100.00
25722;BME280;13578;53.450;15.496;2023-03-07T04:17:44;97763.22;;;-2.98;100.00
25722;BME280;13578;53.450;15.496;2023-03-07T04:20:46;97765.25;;;-3.01;100.00
25722;BME280;13578;53.450;15.496;2023-03-07T04:23:47;97761.06;;;-2.93;100.00
25722;BME280;13578;53.450;15.496;2023-03-07T04:26:49;97760.78;;;-2.88;100.00
25722;BME280;13578;53.450;15.496;2023-03-07T04:29:50;97746.47;;;-2.89;100.00
25722;BME280;13578;53.450;15.496;2023-03-07T04:32:51;97738.09;;;-2.84;100.00
25722;BME280;13578;53.450;15.496;2023-03-07T04:35:51;97736.84;;;-2.78;100.00
25722;BME280;13578;53.450;15.496;2023-03-07T04:38:52;97729.09;;;-2.83;100.00
25722;BME280;13578;53.450;15.496;2023-03-07T04:41:53;97714.47;;;-2.79;100.00
25722;BME280;13578;53.450;15.496;2023-03-07T04:44:53;97683.56;;;-2.72;100.00
25722;BME280;13578;53.450;15.496;2023-03-07T04:47:54;97693.34;;;-2.83;100.00
25722;BME280;13578;53.450;15.496;2023-03-07T04:50:55;97670.78;;;-2.94;100.00
25722;BME280;13578;53.450;15.496;2023-03-07T04:53:56;97667.47;;;-2.84;100.00
25722;BME280;13578;53.450;15.496;2023-03-07T04:56:56;97644.69;;;-2.79;100.00
25722;BME280;13578;53.450;15.496;2023-03-07T04:59:57;97629.22;;;-2.75;100.00
25722;BME280;13578;53.450;15.496;2023-03-07T05:02:58;97632.25;;;-2.80;100.00
25722;BME280;13578;53.450;15.496;2023-03-07T05:06:03;97624.47;;;-2.72;100.00
25722;BME280;13578;53.450;15.496;2023-03-07T05:09:04;97622.78;;;-2.85;100.00
25722;BME280;13578;53.450;15.496;2023-03-07T05:12:05;97614.81;;;-2.74;100.00
25722;BME280;13578;53.450;15.496;2023-03-07T05:15:06;97608.59;;;-2.75;100.00
25722;BME280;13578;53.450;15.496;2023-03-07T05:18:06;97602.59;;;-2.78;100.00
25722;BME280;13578;53.450;15.496;2023-03-07T05:21:07;97592.25;;;-2.72;100.00
25722;BME280;13578;53.450;15.496;2023-03-07T05:24:09;97576.38;;;-2.75;100.00
25722;BME280;13578;53.450;15.496;2023-03-07T05:27:09;97562.00;;;-2.74;100.00
25722;BME280;13578;53.450;15.496;2023-03-07T05:30:10;97579.59;;;-2.69;100.00
25722;BME280;13578;53.450;15.496;2023-03-07T05:33:12;97556.38;;;-2.71;100.00
25722;BME280;13578;53.450;15.496;2023-03-07T05:36:13;97548.66;;;-2.75;100.00
25722;BME280;13578;53.450;15.496;2023-03-07T05:39:13;97539.44;;;-2.71;100.00
25722;BME280;13578;53.450;15.496;2023-03-07T05:42:15;97534.91;;;-2.71;100.00
25722;BME280;13578;53.450;15.496;2023-03-07T05:45:16;97532.88;;;-2.67;100.00
25722;BME280;13578;53.450;15.496;2023-03-07T05:48:16;97523.50;;;-2.61;100.00
25722;BME280;13578;53.450;15.496;2023-03-07T05:51:17;97532.31;;;-2.59;100.00
25722;BME280;13578;53.450;15.496;2023-03-07T05:54:17;97511.94;;;-2.62;100.00
25722;BME280;13578;53.450;15.496;2023-03-07T05:57:19;97513.19;;;-2.54;100.00
25722;BME280;13578;53.450;15.496;2023-03-07T06:00:20;97482.91;;;-2.57;100.00
25722;BME280;13578;53.450;15.496;2023-03-07T06:03:21;97506.06;;;-2.43;100.00
25722;BME280;13578;53.450;15.496;2023-03-07T06:06:22;97488.00;;;-2.41;100.00
25722;BME280;13578;53.450;15.496;2023-03-07T06:09:23;97469.47;;;-2.32;100.00
25722;BME280;13578;53.450;15.496;2023-03-07T06:12:25;97475.72;;;-2.32;100.00
25722;BME280;13578;53.450;15.496;2023-03-07T06:15:25;97480.97;;;-2.30;100.00
25722;BME280;13578;53.450;15.496;2023-03-07T06:18:26;97471.06;;;-2.30;100.00
25722;BME280;13578;53.450;15.496;2023-03-07T06:21:27;97459.75;;;-2.22;100.00
25722;BME280;13578;53.450;15.496;2023-03-07T06:24:27;97434.13;;;-2.15;100.00
25722;BME280;13578;53.450;15.496;2023-03-07T06:27:31;97444.41;;;-2.09;100.00
25722;BME280;13578;53.450;15.496;2023-03-07T06:30:32;97433.66;;;-2.09;100.00
25722;BME280;13578;53.450;15.496;2023-03-07T06:33:33;97433.34;;;-1.93;100.00
25722;BME280;13578;53.450;15.496;2023-03-07T06:36:34;97425.53;;;-1.96;100.00
25722;BME280;13578;53.450;15.496;2023-03-07T06:39:34;97409.75;;;-1.89;100.00
25722;BME280;13578;53.450;15.496;2023-03-07T06:42:35;97409.66;;;-1.87;100.00
25722;BME280;13578;53.450;15.496;2023-03-07T06:45:36;97408.22;;;-1.80;100.00
25722;BME280;13578;53.450;15.496;2023-03-07T06:48:37;97410.28;;;-1.72;100.00
25722;BME280;13578;53.450;15.496;2023-03-07T06:51:38;97407.13;;;-1.66;100.00
25722;BME280;13578;53.450;15.496;2023-03-07T06:54:39;97382.19;;;-1.68;100.00
25722;BME280;13578;53.450;15.496;2023-03-07T06:57:39;97381.47;;;-1.59;100.00
25722;BME280;13578;53.450;15.496;2023-03-07T07:00:41;97386.34;;;-1.53;100.00
25722;BME280;13578;53.450;15.496;2023-03-07T07:03:42;97374.13;;;-1.57;100.00
25722;BME280;13578;53.450;15.496;2023-03-07T07:06:43;97361.16;;;-1.52;100.00
25722;BME280;13578;53.450;15.496;2023-03-07T07:09:44;97372.16;;;-1.44;100.00
25722;BME280;13578;53.450;15.496;2023-03-07T07:12:44;97364.72;;;-1.29;100.00
25722;BME280;13578;53.450;15.496;2023-03-07T07:15:45;97354.44;;;-1.23;100.00
25722;BME280;13578;53.450;15.496;2023-03-07T07:18:45;97356.16;;;-1.22;100.00
25722;BME280;13578;53.450;15.496;2023-03-07T07:21:46;97354.53;;;-1.14;100.00
25722;BME280;13578;53.450;15.496;2023-03-07T07:24:47;97358.06;;;-1.02;100.00
25722;BME280;13578;53.450;15.496;2023-03-07T07:27:47;97340.56;;;-0.96;100.00
25722;BME280;13578;53.450;15.496;2023-03-07T07:30:48;97333.28;;;-0.84;100.00
25722;BME280;13578;53.450;15.496;2023-03-07T07:33:48;97337.84;;;-0.85;100.00
25722;BME280;13578;53.450;15.496;2023-03-07T07:36:49;97322.13;;;-0.80;100.00
25722;BME280;13578;53.450;15.496;2023-03-07T07:39:51;97306.47;;;-0.74;100.00
25722;BME280;13578;53.450;15.496;2023-03-07T07:42:52;97302.28;;;-0.67;100.00
25722;BME280;13578;53.450;15.496;2023-03-07T07:45:55;97307.16;;;-0.61;100.00
25722;BME280;13578;53.450;15.496;2023-03-07T07:48:56;97301.75;;;-0.61;100.00
25722;BME280;13578;53.450;15.496;2023-03-07T07:51:57;97302.19;;;-0.44;100.00
25722;BME280;13578;53.450;15.496;2023-03-07T07:54:57;97299.38;;;-0.54;100.00
25722;BME280;13578;53.450;15.496;2023-03-07T07:57:58;97291.66;;;-0.47;100.00
25722;BME280;13578;53.450;15.496;2023-03-07T08:00:58;97300.78;;;-0.39;100.00
25722;BME280;13578;53.450;15.496;2023-03-07T08:03:59;97300.91;;;-0.40;100.00
25722;BME280;13578;53.450;15.496;2023-03-07T08:07:00;97296.06;;;-0.46;100.00
25722;BME280;13578;53.450;15.496;2023-03-07T08:10:00;97273.97;;;-0.40;100.00
25722;BME280;13578;53.450;15.496;2023-03-07T08:13:01;97276.00;;;-0.33;100.00
25722;BME280;13578;53.450;15.496;2023-03-07T08:16:14;97291.19;;;-0.32;100.00
25722;BME280;13578;53.450;15.496;2023-03-07T08:19:15;97280.75;;;-0.25;100.00
25722;BME280;13578;53.450;15.496;2023-03-07T08:22:15;97265.75;;;-0.18;100.00
25722;BME280;13578;53.450;15.496;2023-03-07T08:25:18;97294.53;;;-0.18;100.00
25722;BME280;13578;53.450;15.496;2023-03-07T08:28:20;97289.56;;;-0.23;100.00
25722;BME280;13578;53.450;15.496;2023-03-07T08:31:22;97285.16;;;-0.24;100.00
25722;BME280;13578;53.450;15.496;2023-03-07T08:34:23;97293.75;;;-0.09;100.00
25722;BME280;13578;53.450;15.496;2023-03-07T08:37:24;97279.13;;;-0.06;100.00
25722;BME280;13578;53.450;15.496;2023-03-07T08:40:26;97294.09;;;-0.02;100.00
25722;BME280;13578;53.450;15.496;2023-03-07T08:43:27;97295.25;;;0.05;100.00
25722;BME280;13578;53.450;15.496;2023-03-07T08:46:28;97275.22;;;-0.02;100.00
25722;BME280;13578;53.450;15.496;2023-03-07T08:49:29;97271.78;;;-0.04;100.00
25722;BME280;13578;53.450;15.496;2023-03-07T08:52:30;97282.31;;;-0.01;100.00
25722;BME280;13578;53.450;15.496;2023-03-07T08:55:34;97298.22;;;0.02;100.00
25722;BME280;13578;53.450;15.496;2023-03-07T08:58:35;97283.75;;;0.03;100.00
25722;BME280;13578;53.450;15.496;2023-03-07T09:01:36;97265.00;;;0.02;100.00
25722;BME280;13578;53.450;15.496;2023-03-07T09:04:36;97283.16;;;-0.01;100.00
25722;BME280;13578;53.450;15.496;2023-03-07T09:07:37;97280.31;;;0.01;100.00
25722;BME280;13578;53.450;15.496;2023-03-07T09:10:37;97271.25;;;0.02;100.00
25722;BME280;13578;53.450;15.496;2023-03-07T09:13:38;97279.53;;;0.10;100.00
25722;BME280;13578;53.450;15.496;2023-03-07T09:16:39;97279.28;;;0.13;100.00
25722;BME280;13578;53.450;15.496;2023-03-07T09:19:39;97280.97;;;0.14;100.00
25722;BME280;13578;53.450;15.496;2023-03-07T09:22:41;97280.72;;;0.27;100.00
25722;BME280;13578;53.450;15.496;2023-03-07T09:25:42;97288.53;;;0.21;100.00
25722;BME280;13578;53.450;15.496;2023-03-07T09:28:43;97279.31;;;0.23;100.00
25722;BME280;13578;53.450;15.496;2023-03-07T09:31:44;97285.09;;;0.19;100.00
25722;BME280;13578;53.450;15.496;2023-03-07T09:34:44;97256.56;;;0.16;100.00
25722;BME280;13578;53.450;15.496;2023-03-07T09:37:45;97273.47;;;0.18;100.00
25722;BME280;13578;53.450;15.496;2023-03-07T09:40:46;97268.97;;;0.28;100.00
25722;BME280;13578;53.450;15.496;2023-03-07T09:44:14;97269.72;;;0.40;100.00
25722;BME280;13578;53.450;15.496;2023-03-07T09:50:55;97261.88;;;0.37;100.00
25722;BME280;13578;53.450;15.496;2023-03-07T09:54:03;97252.72;;;0.50;100.00
25722;BME280;13578;53.450;15.496;2023-03-07T09:57:33;97261.97;;;0.57;100.00
25722;BME280;13578;53.450;15.496;2023-03-07T10:03:56;97255.34;;;0.81;100.00
25722;BME280;13578;53.450;15.496;2023-03-07T10:07:00;97246.28;;;1.01;100.00
25722;BME280;13578;53.450;15.496;2023-03-07T10:10:10;97247.84;;;1.23;100.00
25722;BME280;13578;53.450;15.496;2023-03-07T10:20:02;97267.06;;;1.30;100.00
25722;BME280;13578;53.450;15.496;2023-03-07T10:23:35;97267.06;;;1.30;100.00
25722;BME280;13578;53.450;15.496;2023-03-07T10:27:06;97272.75;;;1.27;100.00
25722;BME280;13578;53.450;15.496;2023-03-07T10:30:18;97267.19;;;1.19;100.00
25722;BME280;13578;53.450;15.496;2023-03-07T10:33:20;97278.00;;;1.19;100.00
25722;BME280;13578;53.450;15.496;2023-03-07T10:36:43;97291.81;;;1.25;100.00
25722;BME280;13578;53.450;15.496;2023-03-07T10:39:50;97297.94;;;1.27;100.00
25722;BME280;13578;53.450;15.496;2023-03-07T10:42:53;97294.19;;;1.19;100.00
25722;BME280;13578;53.450;15.496;2023-03-07T10:46:00;97295.34;;;1.06;100.00
25722;BME280;13578;53.450;15.496;2023-03-07T10:59:03;97280.13;;;1.15;100.00
25722;BME280;13578;53.450;15.496;2023-03-07T11:05:36;97249.97;;;1.30;100.00
25722;BME280;13578;53.450;15.496;2023-03-07T11:08:36;97262.94;;;1.36;100.00
25722;BME280;13578;53.450;15.496;2023-03-07T11:11:37;97262.06;;;1.35;100.00
25722;BME280;13578;53.450;15.496;2023-03-07T11:17:50;97243.56;;;1.40;100.00
25722;BME280;13578;53.450;15.496;2023-03-07T11:20:51;97250.84;;;1.40;100.00
25722;BME280;13578;53.450;15.496;2023-03-07T11:24:15;97233.78;;;1.49;100.00
25722;BME280;13578;53.450;15.496;2023-03-07T11:27:32;97241.72;;;1.51;100.00
25722;BME280;13578;53.450;15.496;2023-03-07T11:30:46;97235.03;;;1.55;100.00
25722;BME280;13578;53.450;15.496;2023-03-07T11:33:54;97243.72;;;1.68;100.00
25722;BME280;13578;53.450;15.496;2023-03-07T11:37:16;97225.19;;;1.73;100.00
25722;BME280;13578;53.450;15.496;2023-03-07T11:40:34;97227.88;;;1.83;100.00
25722;BME280;13578;53.450;15.496;2023-03-07T11:50:33;97219.69;;;2.03;100.00
25722;BME280;13578;53.450;15.496;2023-03-07T11:53:41;97219.09;;;2.19;100.00
25722;BME280;13578;53.450;15.496;2023-03-07T11:56:51;97233.06;;;2.14;100.00
25722;BME280;13578;53.450;15.496;2023-03-07T12:00:03;97226.75;;;2.24;100.00
25722;BME280;13578;53.450;15.496;2023-03-07T12:03:24;97222.47;;;2.31;100.00
25722;BME280;13578;53.450;15.496;2023-03-07T12:07:20;97230.31;;;2.24;100.00
25722;BME280;13578;53.450;15.496;2023-03-07T12:10:46;97229.53;;;2.32;100.00
25722;BME280;13578;53.450;15.496;2023-03-07T12:17:18;97220.44;;;2.33;100.00
25722;BME280;13578;53.450;15.496;2023-03-07T12:20:27;97218.00;;;2.40;100.00
25722;BME280;13578;53.450;15.496;2023-03-07T12:23:35;97219.31;;;2.53;100.00
25722;BME280;13578;53.450;15.496;2023-03-07T12:26:59;97222.81;;;2.46;100.00
25722;BME280;13578;53.450;15.496;2023-03-07T12:30:14;97225.22;;;2.49;100.00
25722;BME280;13578;53.450;15.496;2023-03-07T12:37:02;97217.84;;;2.41;100.00
25722;BME280;13578;53.450;15.496;2023-03-07T12:40:16;97213.41;;;2.40;100.00
25722;BME280;13578;53.450;15.496;2023-03-07T12:43:28;97209.16;;;2.37;100.00
25722;BME280;13578;53.450;15.496;2023-03-07T12:46:51;97220.88;;;2.28;100.00
25722;BME280;13578;53.450;15.496;2023-03-07T12:50:15;97197.13;;;2.22;100.00
25722;BME280;13578;53.450;15.496;2023-03-07T12:53:54;97197.28;;;2.20;100.00
25722;BME280;13578;53.450;15.496;2023-03-07T12:57:10;97204.56;;;2.20;100.00
25722;BME280;13578;53.450;15.496;2023-03-07T13:00:18;97211.47;;;2.32;100.00
25722;BME280;13578;53.450;15.496;2023-03-07T13:06:42;97204.78;;;2.27;100.00
25722;BME280;13578;53.450;15.496;2023-03-07T13:09:45;97214.34;;;2.31;100.00
25722;BME280;13578;53.450;15.496;2023-03-07T13:12:48;97208.50;;;2.26;100.00
25722;BME280;13578;53.450;15.496;2023-03-07T13:16:04;97216.88;;;2.32;100.00
25722;BME280;13578;53.450;15.496;2023-03-07T13:28:42;97208.38;;;2.55;100.00
25722;BME280;13578;53.450;15.496;2023-03-07T13:31:43;97221.84;;;2.65;100.00
25722;BME280;13578;53.450;15.496;2023-03-07T13:34:45;97200.03;;;2.66;100.00
25722;BME280;13578;53.450;15.496;2023-03-07T13:37:48;97206.84;;;2.70;100.00
25722;BME280;13578;53.450;15.496;2023-03-07T13:40:50;97211.13;;;2.73;100.00
25722;BME280;13578;53.450;15.496;2023-03-07T13:46:53;97195.50;;;2.85;100.00
25722;BME280;13578;53.450;15.496;2023-03-07T13:49:58;97194.88;;;2.91;100.00
25722;BME280;13578;53.450;15.496;2023-03-07T13:53:01;97187.66;;;2.82;100.00
25722;BME280;13578;53.450;15.496;2023-03-07T13:59:19;97174.75;;;2.94;100.00
25722;BME280;13578;53.450;15.496;2023-03-07T14:02:23;97166.38;;;2.87;100.00
25722;BME280;13578;53.450;15.496;2023-03-07T14:05:25;97177.38;;;2.85;100.00
25722;BME280;13578;53.450;15.496;2023-03-07T14:08:29;97170.56;;;2.81;100.00
25722;BME280;13578;53.450;15.496;2023-03-07T14:12:19;97180.41;;;2.82;100.00
25722;BME280;13578;53.450;15.496;2023-03-07T14:15:19;97176.53;;;2.85;100.00
25722;BME280;13578;53.450;15.496;2023-03-07T14:21:50;97162.38;;;2.73;100.00
25722;BME280;13578;53.450;15.496;2023-03-07T14:28:23;97152.72;;;2.61;100.00
25722;BME280;13578;53.450;15.496;2023-03-07T14:31:47;97166.75;;;2.56;100.00
25722;BME280;13578;53.450;15.496;2023-03-07T14:34:48;97166.75;;;2.56;100.00
25722;BME280;13578;53.450;15.496;2023-03-07T14:37:49;97165.34;;;2.52;100.00
25722;BME280;13578;53.450;15.496;2023-03-07T14:41:12;97168.50;;;2.47;100.00
25722;BME280;13578;53.450;15.496;2023-03-07T14:44:46;97169.28;;;2.40;100.00
25722;BME280;13578;53.450;15.496;2023-03-07T14:47:58;97175.47;;;2.22;100.00
25722;BME280;13578;53.450;15.496;2023-03-07T14:51:22;97169.50;;;2.18;100.00
25722;BME280;13578;53.450;15.496;2023-03-07T14:54:30;97168.81;;;2.16;100.00
25722;BME280;13578;53.450;15.496;2023-03-07T14:57:40;97180.59;;;2.25;100.00
25722;BME280;13578;53.450;15.496;2023-03-07T15:00:45;97170.56;;;2.08;100.00
25722;BME280;13578;53.450;15.496;2023-03-07T15:03:50;97173.38;;;2.16;100.00
25722;BME280;13578;53.450;15.496;2023-03-07T15:06:52;97174.81;;;2.10;100.00
25722;BME280;13578;53.450;15.496;2023-03-07T15:09:53;97166.47;;;2.03;100.00
25722;BME280;13578;53.450;15.496;2023-03-07T15:12:55;97173.03;;;1.91;100.00
25722;BME280;13578;53.450;15.496;2023-03-07T15:16:02;97160.97;;;1.85;100.00
25722;BME280;13578;53.450;15.496;2023-03-07T15:22:18;97184.75;;;1.82;100.00
25722;BME280;13578;53.450;15.496;2023-03-07T15:25:23;97175.66;;;1.73;100.00
25722;BME280;13578;53.450;15.496;2023-03-07T15:28:26;97183.75;;;1.73;100.00
25722;BME280;13578;53.450;15.496;2023-03-07T15:31:31;97168.56;;;1.62;100.00
25722;BME280;13578;53.450;15.496;2023-03-07T15:38:22;97207.75;;;1.48;100.00
25722;BME280;13578;53.450;15.496;2023-03-07T15:41:27;97222.69;;;1.42;100.00
25722;BME280;13578;53.450;15.496;2023-03-07T15:44:29;97198.38;;;1.23;100.00
25722;BME280;13578;53.450;15.496;2023-03-07T15:47:30;97181.31;;;1.13;100.00
25722;BME280;13578;53.450;15.496;2023-03-07T15:50:31;97198.22;;;0.85;100.00
25722;BME280;13578;53.450;15.496;2023-03-07T15:53:35;97207.03;;;0.77;100.00
25722;BME280;13578;53.450;15.496;2023-03-07T15:56:37;97200.22;;;0.73;100.00
25722;BME280;13578;53.450;15.496;2023-03-07T15:59:45;97218.41;;;0.81;100.00
25722;BME280;13578;53.450;15.496;2023-03-07T16:02:48;97212.16;;;0.90;100.00
25722;BME280;13578;53.450;15.496;2023-03-07T16:05:49;97235.03;;;0.96;100.00
25722;BME280;13578;53.450;15.496;2023-03-07T16:08:50;97230.63;;;0.85;100.00
25722;BME280;13578;53.450;15.496;2023-03-07T16:11:50;97216.00;;;0.88;100.00
25722;BME280;13578;53.450;15.496;2023-03-07T16:14:52;97207.75;;;0.79;100.00
25722;BME280;13578;53.450;15.496;2023-03-07T16:17:54;97226.50;;;0.91;100.00
25722;BME280;13578;53.450;15.496;2023-03-07T16:20:56;97220.53;;;0.87;100.00
25722;BME280;13578;53.450;15.496;2023-03-07T16:23:56;97240.16;;;0.99;100.00
25722;BME280;13578;53.450;15.496;2023-03-07T16:26:57;97221.97;;;1.01;100.00
25722;BME280;13578;53.450;15.496;2023-03-07T16:29:58;97240.31;;;0.98;100.00
25722;BME280;13578;53.450;15.496;2023-03-07T16:32:59;97230.78;;;0.93;100.00
25722;BME280;13578;53.450;15.496;2023-03-07T16:35:59;97237.72;;;0.96;100.00
25722;BME280;13578;53.450;15.496;2023-03-07T16:39:00;97236.88;;;0.86;100.00
25722;BME280;13578;53.450;15.496;2023-03-07T16:42:01;97234.44;;;0.83;100.00
25722;BME280;13578;53.450;15.496;2023-03-07T16:45:04;97245.97;;;0.75;100.00
25722;BME280;13578;53.450;15.496;2023-03-07T16:48:09;97246.47;;;0.59;100.00
25722;BME280;13578;53.450;15.496;2023-03-07T16:51:14;97272.75;;;0.57;100.00
25722;BME280;13578;53.450;15.496;2023-03-07T16:54:16;97247.59;;;0.46;100.00
25722;BME280;13578;53.450;15.496;2023-03-07T16:57:16;97252.25;;;0.44;100.00
25722;BME280;13578;53.450;15.496;2023-03-07T17:00:19;97269.28;;;0.35;100.00
25722;BME280;13578;53.450;15.496;2023-03-07T17:03:20;97259.44;;;0.24;100.00
25722;BME280;13578;53.450;15.496;2023-03-07T17:06:21;97268.78;;;0.20;100.00
25722;BME280;13578;53.450;15.496;2023-03-07T17:09:22;97266.19;;;0.09;100.00
25722;BME280;13578;53.450;15.496;2023-03-07T17:12:23;97275.25;;;0.08;100.00
25722;BME280;13578;53.450;15.496;2023-03-07T17:15:25;97285.06;;;0.09;100.00